createdAt,value
2018-07-22T00:01:53.179Z,25.39
2018-07-22T00:04:27.768Z,25.40
2018-07-22T00:06:56.962Z,25.43
2018-07-22T00:09:26.050Z,25.44
2018-07-22T00:11:55.236Z,25.45
2018-07-22T00:14:24.531Z,25.45
2018-07-22T00:16:53.593Z,25.47
2018-07-22T00:19:24.551Z,25.47
2018-07-22T00:21:53.660Z,25.48
2018-07-22T00:24:22.768Z,25.50
2018-07-22T00:26:51.900Z,25.50
2018-07-22T00:29:21.329Z,25.51
2018-07-22T00:31:50.424Z,25.53
2018-07-22T00:34:19.654Z,25.53
2018-07-22T00:36:48.782Z,25.55
2018-07-22T00:39:17.856Z,25.55
2018-07-22T00:41:46.944Z,25.57
2018-07-22T00:44:16.038Z,25.57
2018-07-22T00:46:45.145Z,25.58
2018-07-22T00:49:14.241Z,25.58
2018-07-22T00:51:43.346Z,25.59
2018-07-22T00:54:12.463Z,25.59
2018-07-22T00:56:41.548Z,25.60
2018-07-22T00:59:10.623Z,25.61
2018-07-22T01:01:39.692Z,25.62
2018-07-22T01:04:09.294Z,25.61
2018-07-22T01:06:38.432Z,25.64
2018-07-22T01:09:09.134Z,25.64
2018-07-22T01:11:38.228Z,25.65
2018-07-22T01:14:07.806Z,25.66
2018-07-22T01:16:37.015Z,25.66
2018-07-22T01:19:06.616Z,25.67
2018-07-22T01:21:35.756Z,25.68
2018-07-22T01:24:04.862Z,25.68
2018-07-22T01:26:33.948Z,25.69
2018-07-22T01:29:03.192Z,25.69
2018-07-22T01:31:32.344Z,25.70
2018-07-22T01:34:01.534Z,25.71
2018-07-22T01:36:30.855Z,25.72
2018-07-22T01:38:59.950Z,25.72
2018-07-22T01:41:29.078Z,25.71
2018-07-22T01:43:58.236Z,25.73
2018-07-22T01:46:27.357Z,25.73
2018-07-22T01:48:56.518Z,25.75
2018-07-22T01:51:25.594Z,25.74
2018-07-22T01:53:54.722Z,25.75
2018-07-22T01:56:24.016Z,25.75
2018-07-22T01:58:53.082Z,25.76
2018-07-22T02:01:22.210Z,25.76
2018-07-22T02:03:51.363Z,25.76
2018-07-22T02:06:20.416Z,25.77
2018-07-22T02:08:49.487Z,25.77
2018-07-22T02:11:19.176Z,25.79
2018-07-22T02:13:48.297Z,25.78
2018-07-22T02:16:17.820Z,25.79
2018-07-22T02:18:47.007Z,25.78
2018-07-22T02:21:16.144Z,25.79
2018-07-22T02:23:50.926Z,25.80
2018-07-22T02:26:24.859Z,25.79
2018-07-22T02:28:53.944Z,25.80
2018-07-22T02:31:23.021Z,25.79
2018-07-22T02:33:52.086Z,25.79
2018-07-22T02:36:21.162Z,25.80
2018-07-22T02:38:50.349Z,25.80
2018-07-22T02:41:19.438Z,25.81
2018-07-22T02:43:48.543Z,25.80
2018-07-22T02:46:17.984Z,25.81
2018-07-22T02:48:47.609Z,25.81
2018-07-22T02:51:16.691Z,25.79
2018-07-22T02:53:45.864Z,25.79
2018-07-22T02:56:14.976Z,25.79
2018-07-22T02:58:44.075Z,25.81
2018-07-22T03:01:13.232Z,25.81
2018-07-22T03:03:42.390Z,25.82
2018-07-22T03:06:11.536Z,25.82
2018-07-22T03:08:40.638Z,25.82
2018-07-22T03:11:09.724Z,25.82
2018-07-22T03:13:38.820Z,25.82
2018-07-22T03:16:08.596Z,25.83
2018-07-22T03:18:37.686Z,25.83
2018-07-22T03:21:07.089Z,25.83
2018-07-22T03:23:36.189Z,25.84
2018-07-22T03:26:05.478Z,25.84
2018-07-22T03:28:34.618Z,25.85
2018-07-22T03:31:03.805Z,25.85
2018-07-22T03:33:32.884Z,25.85
2018-07-22T03:36:02.117Z,25.84
2018-07-22T03:38:31.210Z,25.86
2018-07-22T03:41:00.295Z,25.86
2018-07-22T03:43:29.475Z,25.85
2018-07-22T03:45:58.629Z,25.86
2018-07-22T03:48:28.248Z,25.86
2018-07-22T03:50:57.352Z,25.87
2018-07-22T03:53:26.495Z,25.86
2018-07-22T03:55:55.581Z,25.87
2018-07-22T03:58:24.755Z,25.87
2018-07-22T04:00:53.880Z,25.87
2018-07-22T04:03:23.051Z,25.86
2018-07-22T04:05:52.257Z,25.87
2018-07-22T04:08:21.345Z,25.86
2018-07-22T04:10:50.481Z,25.88
2018-07-22T04:13:19.643Z,25.87
2018-07-22T04:15:48.735Z,25.88
2018-07-22T04:18:17.940Z,25.89
2018-07-22T04:20:47.151Z,25.89
2018-07-22T04:23:16.253Z,25.88
2018-07-22T04:25:45.323Z,25.89
2018-07-22T04:28:14.435Z,25.89
2018-07-22T04:30:43.555Z,25.90
2018-07-22T04:33:12.737Z,25.90
2018-07-22T04:35:41.837Z,25.90
2018-07-22T04:38:10.951Z,25.90
2018-07-22T04:40:40.033Z,25.91
2018-07-22T04:43:09.139Z,25.91
2018-07-22T04:45:38.313Z,25.91
2018-07-22T04:48:07.453Z,25.91
2018-07-22T04:50:36.549Z,25.91
2018-07-22T04:53:05.656Z,25.92
2018-07-22T04:55:34.754Z,25.93
2018-07-22T04:58:03.883Z,25.93
2018-07-22T05:00:32.963Z,25.93
2018-07-22T05:03:02.039Z,25.93
2018-07-22T05:05:31.236Z,25.94
2018-07-22T05:08:00.331Z,25.94
2018-07-22T05:10:29.520Z,25.95
2018-07-22T05:12:58.617Z,25.94
2018-07-22T05:15:28.467Z,25.94
2018-07-22T05:17:59.567Z,25.95
2018-07-22T05:20:29.351Z,25.95
2018-07-22T05:22:59.167Z,25.95
2018-07-22T05:25:28.327Z,25.96
2018-07-22T05:27:57.414Z,25.95
2018-07-22T05:30:26.489Z,25.96
2018-07-22T05:32:55.637Z,25.95
2018-07-22T05:35:24.720Z,25.97
2018-07-22T05:37:53.803Z,25.97
2018-07-22T05:40:23.027Z,25.98
2018-07-22T05:42:52.255Z,25.97
2018-07-22T05:45:21.403Z,25.98
2018-07-22T05:47:50.700Z,25.99
2018-07-22T05:50:19.779Z,25.99
2018-07-22T05:52:48.899Z,26.00
2018-07-22T05:55:20.083Z,26.00
2018-07-22T05:57:49.224Z,26.01
2018-07-22T06:00:18.327Z,26.01
2018-07-22T06:02:47.431Z,26.01
2018-07-22T06:05:16.518Z,26.02
2018-07-22T06:07:45.583Z,26.02
2018-07-22T06:10:14.671Z,26.03
2018-07-22T06:12:43.779Z,26.04
2018-07-22T06:15:12.927Z,26.07
2018-07-22T06:17:42.008Z,26.11
2018-07-22T06:20:11.331Z,26.15
2018-07-22T06:22:40.401Z,26.17
2018-07-22T06:25:09.524Z,26.18
2018-07-22T06:27:38.587Z,26.20
2018-07-22T06:30:07.995Z,26.23
2018-07-22T06:32:37.063Z,26.25
2018-07-22T06:35:06.202Z,26.27
2018-07-22T06:37:35.484Z,26.30
2018-07-22T06:40:04.797Z,26.32
2018-07-22T06:42:33.872Z,26.34
2018-07-22T06:45:03.073Z,26.36
2018-07-22T06:47:32.172Z,26.41
2018-07-22T06:50:01.247Z,26.42
2018-07-22T06:52:31.325Z,26.44
2018-07-22T06:55:00.496Z,26.46
2018-07-22T06:57:30.139Z,26.51
2018-07-22T07:00:00.672Z,26.53
2018-07-22T07:02:29.766Z,26.56
2018-07-22T07:04:58.935Z,26.57
2018-07-22T07:07:28.219Z,26.60
2018-07-22T07:09:58.322Z,26.62
2018-07-22T07:12:27.423Z,26.66
2018-07-22T07:14:56.535Z,26.69
2018-07-22T07:17:25.635Z,26.71
2018-07-22T07:19:54.731Z,26.74
2018-07-22T07:22:24.724Z,26.77
2018-07-22T07:24:53.795Z,26.80
2018-07-22T07:27:22.864Z,26.84
2018-07-22T07:29:52.032Z,26.84
2018-07-22T07:32:21.199Z,26.88
2018-07-22T07:34:50.280Z,26.89
2018-07-22T07:37:19.352Z,26.93
2018-07-22T07:39:48.424Z,26.94
2018-07-22T07:42:17.572Z,26.97
2018-07-22T07:44:46.837Z,26.99
2018-07-22T07:47:15.928Z,26.99
2018-07-22T07:49:46.008Z,26.98
2018-07-22T07:52:15.115Z,26.98
2018-07-22T07:54:44.226Z,27.03
2018-07-22T07:57:13.434Z,27.07
2018-07-22T07:59:42.516Z,27.06
2018-07-22T08:02:11.627Z,27.06
2018-07-22T08:04:40.812Z,27.06
2018-07-22T08:07:09.897Z,27.09
2018-07-22T08:09:38.998Z,27.09
2018-07-22T08:12:08.368Z,27.09
2018-07-22T08:14:37.439Z,27.08
2018-07-22T08:17:06.513Z,27.06
2018-07-22T08:19:35.624Z,27.05
2018-07-22T08:22:04.869Z,27.06
2018-07-22T08:24:34.116Z,27.02
2018-07-22T08:27:03.189Z,26.98
2018-07-22T08:29:35.248Z,26.95
2018-07-22T08:32:05.411Z,26.94
2018-07-22T08:34:34.495Z,26.94
2018-07-22T08:37:03.572Z,26.92
2018-07-22T08:39:33.327Z,26.91
2018-07-22T08:42:02.467Z,26.89
2018-07-22T08:44:31.560Z,26.88
2018-07-22T08:47:00.672Z,26.88
2018-07-22T08:49:29.762Z,26.88
2018-07-22T08:51:58.857Z,26.89
2018-07-22T08:54:28.036Z,26.88
2018-07-22T08:56:57.142Z,26.87
2018-07-22T08:59:26.243Z,26.87
2018-07-22T09:01:55.304Z,26.87
2018-07-22T09:04:24.358Z,26.86
2018-07-22T09:06:53.433Z,26.88
2018-07-22T09:09:22.506Z,26.89
2018-07-22T09:11:52.754Z,26.87
2018-07-22T09:14:21.956Z,26.85
2018-07-22T09:16:51.147Z,26.86
2018-07-22T09:19:21.060Z,26.86
2018-07-22T09:21:50.143Z,26.87
2018-07-22T09:24:19.236Z,26.88
2018-07-22T09:26:48.338Z,26.84
2018-07-22T09:29:17.434Z,26.85
2018-07-22T09:31:46.508Z,26.84
2018-07-22T09:34:15.611Z,26.84
2018-07-22T09:36:44.913Z,26.83
2018-07-22T09:39:14.032Z,26.84
2018-07-22T09:41:43.093Z,26.83
2018-07-22T09:44:12.381Z,26.83
2018-07-22T09:46:41.520Z,26.83
2018-07-22T09:49:10.603Z,26.81
2018-07-22T09:51:39.720Z,26.82
2018-07-22T09:54:08.812Z,26.82
2018-07-22T09:56:37.988Z,26.82
2018-07-22T09:59:07.098Z,26.80
2018-07-22T10:01:38.042Z,26.81
2018-07-22T10:04:07.258Z,26.79
2018-07-22T10:06:36.320Z,26.79
2018-07-22T10:09:08.316Z,26.79
2018-07-22T10:11:37.396Z,26.79
2018-07-22T10:14:06.571Z,26.79
2018-07-22T10:16:35.660Z,26.78
2018-07-22T10:19:04.775Z,26.78
2018-07-22T10:21:33.845Z,26.78
2018-07-22T10:24:02.965Z,26.77
2018-07-22T10:26:32.069Z,26.78
2018-07-22T10:29:01.178Z,26.78
2018-07-22T10:31:30.341Z,26.77
2018-07-22T10:33:59.432Z,26.77
2018-07-22T10:36:28.600Z,26.75
2018-07-22T10:38:57.717Z,26.75
2018-07-22T10:41:26.798Z,26.78
2018-07-22T10:43:55.919Z,26.76
2018-07-22T10:46:25.020Z,26.75
2018-07-22T10:48:54.128Z,26.76
2018-07-22T10:51:23.210Z,26.75
2018-07-22T10:53:52.356Z,26.75
2018-07-22T10:56:21.480Z,26.77
2018-07-22T10:58:50.652Z,26.76
2018-07-22T11:01:19.863Z,26.75
2018-07-22T11:03:48.930Z,26.76
2018-07-22T11:06:18.044Z,26.75
2018-07-22T11:08:47.132Z,26.76
2018-07-22T11:11:16.226Z,26.77
2018-07-22T11:13:45.338Z,26.75
2018-07-22T11:16:14.496Z,26.75
2018-07-22T11:18:43.594Z,26.75
2018-07-22T11:21:12.741Z,26.76
2018-07-22T11:23:42.002Z,26.75
2018-07-22T11:26:11.290Z,26.75
2018-07-22T11:28:40.653Z,26.75
2018-07-22T11:31:10.156Z,26.76
2018-07-22T11:33:39.245Z,26.75
2018-07-22T11:36:08.465Z,26.74
2018-07-22T11:38:37.669Z,26.75
2018-07-22T11:41:06.754Z,26.75
2018-07-22T11:43:35.861Z,26.74
2018-07-22T11:46:04.944Z,26.73
2018-07-22T11:48:34.063Z,26.73
2018-07-22T11:51:03.153Z,26.72
2018-07-22T11:53:32.252Z,26.73
2018-07-22T11:56:01.343Z,26.74
2018-07-22T11:58:30.442Z,26.73
2018-07-22T12:00:59.550Z,26.75
2018-07-22T12:03:28.597Z,26.73
2018-07-22T12:05:57.784Z,26.74
2018-07-22T12:08:27.040Z,26.74
2018-07-22T12:10:56.180Z,26.75
2018-07-22T12:13:25.324Z,26.74
2018-07-22T12:15:54.436Z,26.74
2018-07-22T12:18:23.627Z,26.75
2018-07-22T12:20:52.745Z,26.74
2018-07-22T12:23:21.827Z,26.74
2018-07-22T12:25:51.001Z,26.73
2018-07-22T12:28:20.124Z,26.75
2018-07-22T12:30:49.233Z,26.77
2018-07-22T12:33:18.550Z,26.77
2018-07-22T12:35:47.706Z,26.78
2018-07-22T12:38:16.804Z,26.76
2018-07-22T12:40:45.882Z,26.76
2018-07-22T12:43:15.036Z,26.76
2018-07-22T12:45:44.139Z,26.76
2018-07-22T12:48:13.278Z,26.76
2018-07-22T12:50:42.372Z,26.76
2018-07-22T12:53:11.458Z,26.76
2018-07-22T12:55:40.524Z,26.76
2018-07-22T12:58:09.612Z,26.77
2018-07-22T13:00:38.692Z,26.77
2018-07-22T13:03:07.801Z,26.80
2018-07-22T13:05:37.514Z,26.84
2018-07-22T13:08:07.068Z,26.87
2018-07-22T13:10:36.145Z,26.90
2018-07-22T13:13:05.273Z,26.93
2018-07-22T13:15:34.343Z,26.93
2018-07-22T13:18:03.455Z,26.95
2018-07-22T13:20:32.558Z,26.96
2018-07-22T13:23:02.548Z,26.98
2018-07-22T13:25:31.772Z,27.02
2018-07-22T13:28:00.835Z,27.04
2018-07-22T13:30:29.936Z,27.05
2018-07-22T13:32:59.042Z,27.07
2018-07-22T13:35:29.054Z,27.07
2018-07-22T13:37:58.142Z,27.08
2018-07-22T13:40:27.219Z,27.10
2018-07-22T13:42:56.368Z,27.12
2018-07-22T13:45:25.504Z,27.15
2018-07-22T13:47:54.735Z,27.15
2018-07-22T13:50:23.835Z,27.15
2018-07-22T13:52:52.930Z,27.16
2018-07-22T13:55:22.031Z,27.16
2018-07-22T13:57:51.408Z,27.14
2018-07-22T14:00:20.559Z,27.16
2018-07-22T14:02:50.773Z,27.18
2018-07-22T14:05:19.992Z,27.18
2018-07-22T14:07:49.080Z,27.21
2018-07-22T14:10:18.269Z,27.21
2018-07-22T14:12:48.752Z,27.23
2018-07-22T14:15:18.944Z,27.26
2018-07-22T14:17:48.061Z,27.21
2018-07-22T14:20:17.403Z,27.15
2018-07-22T14:22:46.498Z,27.11
2018-07-22T14:25:15.808Z,26.99
2018-07-22T14:27:45.058Z,26.99
2018-07-22T14:30:14.414Z,26.99
2018-07-22T14:32:43.484Z,26.88
2018-07-22T14:35:12.647Z,26.92
2018-07-22T14:37:41.944Z,26.93
2018-07-22T14:40:11.028Z,26.87
2018-07-22T14:42:40.131Z,26.81
2018-07-22T14:45:09.669Z,26.83
2018-07-22T14:47:38.972Z,26.78
2018-07-22T14:50:08.088Z,26.63
2018-07-22T14:52:37.162Z,26.58
2018-07-22T14:55:06.250Z,26.65
2018-07-22T14:57:35.326Z,26.53
2018-07-22T15:00:05.108Z,26.51
2018-07-22T15:02:34.208Z,26.55
2018-07-22T15:05:03.312Z,26.49
2018-07-22T15:07:32.492Z,26.54
2018-07-22T15:10:01.578Z,26.57
2018-07-22T15:12:30.758Z,26.53
2018-07-22T15:14:59.858Z,26.45
2018-07-22T15:17:28.967Z,26.47
2018-07-22T15:19:59.095Z,26.47
2018-07-22T15:22:28.258Z,26.50
2018-07-22T15:24:57.380Z,26.46
2018-07-22T15:27:26.904Z,26.47
2018-07-22T15:29:55.955Z,26.42
2018-07-22T15:32:25.059Z,26.46
2018-07-22T15:34:54.144Z,26.37
2018-07-22T15:37:23.307Z,26.30
2018-07-22T15:39:52.418Z,26.30
2018-07-22T15:42:21.530Z,26.28
2018-07-22T15:44:51.572Z,26.25
2018-07-22T15:47:21.346Z,26.32
2018-07-22T15:49:50.464Z,26.27
2018-07-22T15:52:19.670Z,26.21
2018-07-22T15:54:48.780Z,26.17
2018-07-22T15:57:17.850Z,26.17
2018-07-22T15:59:46.984Z,26.22
2018-07-22T16:02:16.067Z,26.25
2018-07-22T16:04:45.163Z,26.29
2018-07-22T16:07:14.233Z,26.30
2018-07-22T16:09:43.335Z,26.21
2018-07-22T16:12:12.422Z,26.24
2018-07-22T16:14:42.373Z,26.28
2018-07-22T16:17:11.648Z,26.33
2018-07-22T16:19:40.749Z,26.26
2018-07-22T16:22:09.863Z,26.25
2018-07-22T16:24:38.981Z,26.28
2018-07-22T16:27:08.151Z,26.23
2018-07-22T16:29:37.212Z,26.22
2018-07-22T16:32:06.318Z,26.19
2018-07-22T16:34:35.423Z,26.17
2018-07-22T16:37:04.530Z,26.12
2018-07-22T16:39:34.186Z,26.10
2018-07-22T16:42:03.330Z,26.15
2018-07-22T16:44:32.607Z,26.13
2018-07-22T16:47:01.776Z,26.10
2018-07-22T16:49:30.897Z,26.07
2018-07-22T16:51:59.979Z,26.12
2018-07-22T16:54:29.107Z,26.05
2018-07-22T16:56:58.202Z,26.07
2018-07-22T16:59:27.299Z,26.00
2018-07-22T17:01:56.435Z,25.98
2018-07-22T17:04:25.508Z,26.07
2018-07-22T17:06:54.575Z,26.09
2018-07-22T17:09:23.651Z,26.08
2018-07-22T17:11:52.739Z,26.14
2018-07-22T17:14:21.853Z,26.16
2018-07-22T17:16:50.956Z,25.98
2018-07-22T17:19:20.407Z,25.91
2018-07-22T17:21:49.570Z,25.89
2018-07-22T17:24:18.799Z,25.81
2018-07-22T17:26:48.043Z,25.74
2018-07-22T17:29:17.270Z,25.74
2018-07-22T17:31:46.367Z,25.79
2018-07-22T17:34:15.459Z,25.93
2018-07-22T17:36:44.581Z,26.03
2018-07-22T17:39:13.768Z,26.13
2018-07-22T17:41:42.870Z,26.22
2018-07-22T17:44:12.106Z,26.27
2018-07-22T17:46:41.273Z,26.33
2018-07-22T17:49:10.339Z,26.38
2018-07-22T17:51:39.451Z,26.42
2018-07-22T17:54:08.552Z,26.46
2018-07-22T17:56:37.850Z,26.48
2018-07-22T17:59:06.914Z,26.51
2018-07-22T18:01:36.204Z,26.53
2018-07-22T18:04:05.305Z,26.56
2018-07-22T18:06:34.385Z,26.60
2018-07-22T18:09:03.720Z,26.62
2018-07-22T18:11:32.799Z,26.63
2018-07-22T18:14:01.917Z,26.67
2018-07-22T18:16:31.983Z,26.70
2018-07-22T18:19:01.100Z,26.69
2018-07-22T18:21:30.237Z,26.72
2018-07-22T18:23:59.339Z,26.77
2018-07-22T18:26:28.458Z,26.81
2018-07-22T18:28:57.828Z,26.80
2018-07-22T18:31:26.989Z,26.81
2018-07-22T18:33:56.080Z,26.82
2018-07-22T18:36:25.175Z,26.83
2018-07-22T18:38:54.329Z,26.83
2018-07-22T18:41:23.431Z,26.86
2018-07-22T18:43:53.021Z,26.86
2018-07-22T18:46:22.136Z,26.87
2018-07-22T18:48:51.448Z,26.89
2018-07-22T18:51:20.655Z,26.89
2018-07-22T18:53:51.249Z,26.90
2018-07-22T18:56:20.857Z,26.89
2018-07-22T18:58:50.456Z,26.92
2018-07-22T19:01:19.924Z,26.91
2018-07-22T19:03:49.431Z,26.94
2018-07-22T19:06:18.981Z,26.94
2018-07-22T19:08:48.376Z,26.95
2018-07-22T19:11:17.994Z,26.95
2018-07-22T19:13:47.394Z,26.95
2018-07-22T19:16:17.001Z,26.95
2018-07-22T19:18:46.773Z,26.95
2018-07-22T19:21:16.320Z,26.93
2018-07-22T19:23:46.132Z,26.95
2018-07-22T19:26:15.637Z,26.94
2018-07-22T19:28:45.144Z,26.96
2018-07-22T19:31:15.693Z,26.95
2018-07-22T19:33:45.178Z,26.97
2018-07-22T19:36:14.684Z,26.98
2018-07-22T19:38:44.290Z,27.03
2018-07-22T19:41:13.795Z,27.01
2018-07-22T19:43:43.300Z,26.98
2018-07-22T19:46:12.761Z,27.03
2018-07-22T19:48:42.620Z,27.01
2018-07-22T19:51:12.227Z,26.98
2018-07-22T19:53:41.853Z,26.92
2018-07-22T19:56:11.649Z,26.90
2018-07-22T19:58:41.152Z,26.88
2018-07-22T20:01:10.752Z,26.85
2018-07-22T20:03:40.225Z,26.84
2018-07-22T20:06:09.977Z,26.83
2018-07-22T20:08:39.538Z,26.82
2018-07-22T20:11:08.987Z,26.82
2018-07-22T20:13:38.598Z,26.80
2018-07-22T20:16:08.103Z,26.78
2018-07-22T20:18:37.603Z,26.79
2018-07-22T20:21:07.284Z,26.77
2018-07-22T20:23:36.716Z,26.77
2018-07-22T20:26:06.279Z,26.76
2018-07-22T20:28:35.832Z,26.75
2018-07-22T20:31:04.940Z,26.72
2018-07-22T20:33:34.435Z,26.73
2018-07-22T20:36:03.622Z,26.72
2018-07-22T20:38:33.208Z,26.72
2018-07-22T20:41:02.742Z,26.70
2018-07-22T20:43:32.031Z,26.69
2018-07-22T20:46:01.140Z,26.71
2018-07-22T20:48:30.197Z,26.71
2018-07-22T20:50:59.593Z,26.71
2018-07-22T20:53:28.918Z,26.67
2018-07-22T20:55:58.009Z,26.69
2018-07-22T20:58:27.631Z,26.67
2018-07-22T21:00:56.995Z,26.66
2018-07-22T21:03:26.079Z,26.66
2018-07-22T21:05:55.155Z,26.65
2018-07-22T21:08:24.320Z,26.66
2018-07-22T21:10:53.426Z,26.65
2018-07-22T21:13:25.840Z,26.65
2018-07-22T21:15:55.390Z,26.67
2018-07-22T21:18:24.651Z,26.70
2018-07-22T21:20:53.819Z,26.71
2018-07-22T21:23:23.111Z,26.73
2018-07-22T21:25:52.176Z,26.75
2018-07-22T21:28:21.287Z,26.78
2018-07-22T21:30:50.392Z,26.78
2018-07-22T21:33:20.186Z,26.79
2018-07-22T21:35:49.801Z,26.81
2018-07-22T21:38:18.906Z,26.83
2018-07-22T21:40:48.094Z,26.84
2018-07-22T21:43:17.199Z,26.86
2018-07-22T21:45:46.291Z,26.86
2018-07-22T21:48:15.527Z,26.84
2018-07-22T21:50:44.698Z,26.82
2018-07-22T21:53:13.888Z,26.80
2018-07-22T21:55:43.067Z,26.79
2018-07-22T21:58:12.372Z,26.78
2018-07-22T22:00:44.360Z,26.79
2018-07-22T22:03:13.539Z,26.77
2018-07-22T22:05:42.881Z,26.75
2018-07-22T22:08:11.938Z,26.71
2018-07-22T22:10:41.016Z,26.72
2018-07-22T22:13:10.739Z,26.69
2018-07-22T22:15:39.845Z,26.67
2018-07-22T22:18:08.919Z,26.67
2018-07-22T22:20:38.023Z,26.65
2018-07-22T22:23:07.417Z,26.65
2018-07-22T22:25:36.538Z,26.65
2018-07-22T22:28:05.735Z,26.64
2018-07-22T22:30:34.915Z,26.62
2018-07-22T22:33:04.005Z,26.62
2018-07-22T22:35:33.109Z,26.61
2018-07-22T22:38:02.181Z,26.60
2018-07-22T22:40:31.300Z,26.59
2018-07-22T22:43:00.408Z,26.59
2018-07-22T22:45:29.485Z,26.58
2018-07-22T22:47:58.632Z,26.57
2018-07-22T22:50:27.718Z,26.57
2018-07-22T22:52:56.873Z,26.55
2018-07-22T22:55:25.978Z,26.53
2018-07-22T22:58:06.458Z,26.54
2018-07-22T23:00:35.638Z,26.54
2018-07-22T23:03:04.832Z,26.53
2018-07-22T23:05:33.904Z,26.54
2018-07-22T23:08:02.975Z,26.54
2018-07-22T23:10:32.050Z,26.52
2018-07-22T23:13:01.141Z,26.51
2018-07-22T23:15:30.273Z,26.51
2018-07-22T23:17:59.333Z,26.49
2018-07-22T23:20:31.490Z,26.52
2018-07-22T23:23:00.571Z,26.48
2018-07-22T23:25:29.658Z,26.48
2018-07-22T23:27:58.727Z,26.49
2018-07-22T23:30:27.823Z,26.50
2018-07-22T23:32:57.659Z,26.47
2018-07-22T23:35:26.752Z,26.45
2018-07-22T23:37:55.826Z,26.45
2018-07-22T23:40:24.891Z,26.45
2018-07-22T23:42:53.976Z,26.45
2018-07-22T23:45:23.067Z,26.45
2018-07-22T23:47:55.175Z,26.44
2018-07-22T23:50:24.342Z,26.44
2018-07-22T23:52:53.583Z,26.45
2018-07-22T23:55:23.541Z,26.44
2018-07-22T23:57:52.663Z,26.43
